Time;durP1;ratioP1;P1;durP2;ratioP2;P2;SDS_P1;SDS_P2;PMS_P1;PMS_P2;Temp;Humidity;BMP_temperature;BMP_pressure;BME280_temperature;BME280_humidity;BME280_pressure;Samples;Min_cycle;Max_cycle;Signal;HPM_P1;HPM_P2
2023/05/23 00:00:57;;;;;;;8.23;5.40;;;;;;;;;;5012194;28;20667;-64
2023/05/23 00:03:22;;;;;;;7.93;5.03;;;;;;;;;;5013546;28;20216;-64
2023/05/23 00:05:48;;;;;;;7.55;5.00;;;;;;;;;;5032705;28;20227;-64
2023/05/23 00:08:13;;;;;;;8.43;5.32;;;;;;;;;;5032812;28;20218;-63
2023/05/23 00:10:38;;;;;;;10.27;5.30;;;;;;;;;;5032722;28;20617;-64
2023/05/23 00:13:04;;;;;;;9.07;5.45;;;;;;;;;;5031887;28;20679;-63
2023/05/23 00:15:29;;;;;;;10.77;5.20;;;;;;;;;;5019151;28;20262;-64
2023/05/23 00:17:55;;;;;;;9.32;5.25;;;;;;;;;;5030424;28;20215;-64
2023/05/23 00:20:20;;;;;;;9.60;6.15;;;;;;;;;;5012422;28;20365;-64
2023/05/23 00:22:47;;;;;;;10.15;5.68;;;;;;;;;;5012974;28;20219;-64
2023/05/23 00:25:12;;;;;;;8.48;5.00;;;;;;;;;;5012208;28;20215;-63
2023/05/23 00:27:37;;;;;;;9.70;5.60;;;;;;;;;;5012277;28;20209;-64
2023/05/23 00:30:03;;;;;;;9.23;4.90;;;;;;;;;;5012406;28;20217;-63
2023/05/23 00:32:28;;;;;;;9.70;5.50;;;;;;;;;;5012479;28;20286;-64
2023/05/23 00:34:54;;;;;;;11.10;5.07;;;;;;;;;;5012973;28;20205;-64
2023/05/23 00:37:21;;;;;;;7.72;5.07;;;;;;;;;;5012667;28;20236;-63
2023/05/23 00:39:46;;;;;;;9.82;5.10;;;;;;;;;;5012190;28;20647;-64
2023/05/23 00:42:11;;;;;;;7.55;4.95;;;;;;;;;;5012077;28;20730;-63
2023/05/23 00:44:37;;;;;;;9.65;5.05;;;;;;;;;;5012347;28;20216;-64
2023/05/23 00:47:02;;;;;;;10.95;5.13;;;;;;;;;;5011257;28;20216;-63
2023/05/23 00:49:27;;;;;;;9.63;5.35;;;;;;;;;;5012702;28;20342;-63
2023/05/23 00:51:53;;;;;;;13.75;6.15;;;;;;;;;;5012439;28;20810;-64
2023/05/23 00:54:26;;;;;;;12.40;6.10;;;;;;;;;;5011399;28;20311;-64
2023/05/23 00:56:51;;;;;;;13.93;6.35;;;;;;;;;;5012407;28;20220;-64
2023/05/23 00:59:16;;;;;;;12.60;6.38;;;;;;;;;;5031190;28;20219;-64
2023/05/23 01:01:45;;;;;;;11.32;5.75;;;;;;;;;;5031699;28;20212;-64
2023/05/23 01:04:12;;;;;;;12.60;6.40;;;;;;;;;;5030687;28;20726;-63
2023/05/23 01:06:37;;;;;;;13.30;5.70;;;;;;;;;;5030671;28;20220;-64
2023/05/23 01:09:02;;;;;;;11.52;6.60;;;;;;;;;;5030984;28;20249;-63
2023/05/23 01:11:35;;;;;;;12.63;5.80;;;;;;;;;;5030475;28;20315;-64
2023/05/23 01:14:06;;;;;;;12.38;6.72;;;;;;;;;;5027802;28;20295;-63
2023/05/23 01:16:47;;;;;;;13.63;7.13;;;;;;;;;;5020370;28;20618;-64
2023/05/23 01:19:12;;;;;;;18.23;7.80;;;;;;;;;;5019568;28;20316;-63
2023/05/23 01:21:37;;;;;;;13.38;6.88;;;;;;;;;;5012008;28;20303;-64
2023/05/23 01:24:03;;;;;;;10.75;5.40;;;;;;;;;;5009353;28;20758;-63
2023/05/23 01:26:35;;;;;;;12.45;5.97;;;;;;;;;;5011829;28;20251;-64
2023/05/23 01:29:09;;;;;;;11.13;5.22;;;;;;;;;;5022967;28;20262;-63
2023/05/23 01:31:34;;;;;;;10.38;5.88;;;;;;;;;;5031608;28;20212;-64
2023/05/23 01:34:00;;;;;;;12.90;5.15;;;;;;;;;;5030211;28;20281;-64
2023/05/23 01:36:25;;;;;;;9.93;4.75;;;;;;;;;;5029511;28;20216;-63
2023/05/23 01:41:15;;;;;;;9.57;4.93;;;;;;;;;;5030764;28;20674;-64
2023/05/23 01:43:41;;;;;;;8.55;4.80;;;;;;;;;;5016354;28;20477;-64
2023/05/23 01:46:06;;;;;;;10.05;4.93;;;;;;;;;;5018042;28;20299;-64
2023/05/23 01:48:31;;;;;;;9.60;4.80;;;;;;;;;;5002061;28;20706;-64
2023/05/23 01:50:57;;;;;;;9.63;5.00;;;;;;;;;;5008894;28;20248;-64
2023/05/23 01:53:22;;;;;;;11.52;5.80;;;;;;;;;;5026579;28;20227;-64
2023/05/23 01:55:48;;;;;;;11.27;5.07;;;;;;;;;;5011906;28;20211;-64
2023/05/23 01:58:13;;;;;;;11.93;5.30;;;;;;;;;;5001656;28;20815;-64
2023/05/23 02:00:38;;;;;;;13.02;5.50;;;;;;;;;;5006191;28;20224;-64
2023/05/23 02:03:04;;;;;;;12.82;6.38;;;;;;;;;;5001857;28;20730;-64
2023/05/23 02:05:30;;;;;;;11.38;5.25;;;;;;;;;;5020532;28;20215;-63
2023/05/23 02:07:55;;;;;;;11.65;5.45;;;;;;;;;;5021148;28;20657;-64
2023/05/23 02:10:21;;;;;;;12.45;5.57;;;;;;;;;;5020405;28;20218;-64
2023/05/23 02:12:46;;;;;;;13.85;6.15;;;;;;;;;;5020245;28;20311;-64
2023/05/23 02:15:11;;;;;;;10.95;5.60;;;;;;;;;;4997769;28;20219;-63
2023/05/23 02:17:38;;;;;;;13.18;6.03;;;;;;;;;;5001071;28;20216;-64
2023/05/23 02:20:05;;;;;;;10.80;5.80;;;;;;;;;;4994698;28;20228;-64
2023/05/23 02:22:30;;;;;;;10.70;5.68;;;;;;;;;;5017152;28;20227;-64
2023/05/23 02:24:55;;;;;;;9.23;5.43;;;;;;;;;;5007230;28;20213;-64
2023/05/23 02:27:21;;;;;;;13.25;5.88;;;;;;;;;;5000704;28;20973;-64
2023/05/23 02:29:46;;;;;;;10.45;5.80;;;;;;;;;;5014167;28;20224;-64
2023/05/23 02:32:11;;;;;;;11.75;5.90;;;;;;;;;;5013449;28;20691;-63
2023/05/23 02:34:37;;;;;;;13.90;6.30;;;;;;;;;;5001826;28;20228;-64
2023/05/23 02:37:02;;;;;;;12.95;5.90;;;;;;;;;;4999683;28;20707;-63
2023/05/23 02:39:27;;;;;;;11.90;5.90;;;;;;;;;;4993477;28;20232;-64
2023/05/23 02:41:53;;;;;;;11.23;6.85;;;;;;;;;;4993760;28;20217;-65
2023/05/23 02:44:18;;;;;;;12.52;6.35;;;;;;;;;;4994249;28;20216;-64
2023/05/23 02:46:44;;;;;;;11.25;6.30;;;;;;;;;;5001200;28;20323;-64
2023/05/23 02:49:09;;;;;;;11.68;6.15;;;;;;;;;;5000855;28;20216;-64
2023/05/23 02:51:35;;;;;;;13.82;6.43;;;;;;;;;;5006523;28;20603;-64
2023/05/23 02:54:00;;;;;;;12.55;7.57;;;;;;;;;;5019638;28;20216;-64
2023/05/23 02:56:26;;;;;;;15.63;7.20;;;;;;;;;;5020240;28;20219;-64
2023/05/23 02:58:52;;;;;;;13.00;7.13;;;;;;;;;;5004786;28;20217;-64
2023/05/23 03:01:17;;;;;;;15.80;7.78;;;;;;;;;;4999835;28;20749;-64
2023/05/23 03:03:42;;;;;;;16.90;7.88;;;;;;;;;;4998954;28;20306;-64
2023/05/23 03:06:09;;;;;;;15.32;8.40;;;;;;;;;;4993223;28;20217;-64
2023/05/23 03:08:34;;;;;;;14.93;7.72;;;;;;;;;;5017654;28;20607;-64
2023/05/23 03:11:00;;;;;;;15.68;7.90;;;;;;;;;;5022821;28;20220;-65
2023/05/23 03:13:25;;;;;;;16.88;7.30;;;;;;;;;;5019210;28;20224;-64
2023/05/23 03:15:50;;;;;;;14.63;7.10;;;;;;;;;;5007440;28;20212;-64
2023/05/23 03:18:15;;;;;;;14.07;6.97;;;;;;;;;;5004171;28;20220;-64
2023/05/23 03:20:41;;;;;;;15.13;8.13;;;;;;;;;;5004922;28;20779;-64
2023/05/23 03:23:06;;;;;;;13.88;7.57;;;;;;;;;;5008514;28;20215;-64
2023/05/23 03:25:31;;;;;;;19.13;8.00;;;;;;;;;;4996962;28;20719;-64
2023/05/23 03:27:57;;;;;;;15.57;7.60;;;;;;;;;;5014310;28;20212;-64
2023/05/23 03:30:22;;;;;;;13.68;7.18;;;;;;;;;;5018971;28;20216;-64
2023/05/23 03:32:48;;;;;;;14.52;6.72;;;;;;;;;;5022531;28;20368;-64
2023/05/23 03:35:13;;;;;;;14.15;7.25;;;;;;;;;;5015646;28;20239;-64
2023/05/23 03:37:39;;;;;;;14.43;6.90;;;;;;;;;;5003597;28;20581;-64
2023/05/23 03:40:06;;;;;;;16.10;7.07;;;;;;;;;;5006981;28;20220;-64
2023/05/23 03:42:31;;;;;;;15.60;6.40;;;;;;;;;;5023153;28;20212;-64
2023/05/23 03:44:56;;;;;;;14.35;6.63;;;;;;;;;;5019751;28;20230;-64
2023/05/23 03:47:23;;;;;;;11.32;6.32;;;;;;;;;;5015909;28;20231;-64
2023/05/23 03:49:48;;;;;;;12.80;6.80;;;;;;;;;;5015481;28;20315;-64
2023/05/23 03:52:13;;;;;;;15.88;6.97;;;;;;;;;;5016151;28;20227;-64
2023/05/23 03:54:38;;;;;;;11.60;5.80;;;;;;;;;;5019846;28;20265;-64
2023/05/23 03:57:04;;;;;;;13.45;6.65;;;;;;;;;;5020482;28;20243;-64
2023/05/23 03:59:29;;;;;;;11.38;6.15;;;;;;;;;;5004063;28;20224;-64
2023/05/23 04:01:57;;;;;;;10.70;6.47;;;;;;;;;;5004041;28;20246;-65
2023/05/23 04:04:23;;;;;;;11.57;6.35;;;;;;;;;;5012865;28;20208;-64
2023/05/23 04:06:49;;;;;;;11.38;5.57;;;;;;;;;;5003074;28;20577;-64
2023/05/23 04:09:14;;;;;;;10.95;6.32;;;;;;;;;;4997164;28;20839;-64
2023/05/23 04:11:40;;;;;;;11.30;6.60;;;;;;;;;;5014389;28;20659;-64
2023/05/23 04:14:06;;;;;;;12.43;6.43;;;;;;;;;;5012394;28;20603;-64
2023/05/23 04:16:32;;;;;;;11.75;6.25;;;;;;;;;;5012249;28;20315;-64
2023/05/23 04:18:57;;;;;;;10.80;5.68;;;;;;;;;;5010100;28;20713;-64
2023/05/23 04:21:23;;;;;;;11.00;6.32;;;;;;;;;;5001818;28;20219;-64
2023/05/23 04:23:48;;;;;;;12.23;5.90;;;;;;;;;;5017676;28;20674;-64
2023/05/23 04:26:13;;;;;;;13.05;6.13;;;;;;;;;;5012257;28;20225;-64
2023/05/23 04:28:38;;;;;;;13.38;5.30;;;;;;;;;;5006648;28;20323;-65
2023/05/23 04:31:04;;;;;;;10.65;5.72;;;;;;;;;;5018591;28;20208;-64
2023/05/23 04:33:29;;;;;;;13.10;6.32;;;;;;;;;;5014873;28;20227;-64
2023/05/23 04:35:55;;;;;;;10.32;5.85;;;;;;;;;;4998929;28;20880;-64
2023/05/23 04:38:23;;;;;;;14.48;6.10;;;;;;;;;;4998955;28;20220;-64
2023/05/23 04:40:50;;;;;;;12.57;6.43;;;;;;;;;;5021793;28;20211;-64
2023/05/23 04:43:15;;;;;;;13.68;6.30;;;;;;;;;;5028116;28;20211;-64
2023/05/23 04:45:40;;;;;;;13.95;6.50;;;;;;;;;;5032078;28;20618;-64
2023/05/23 04:48:06;;;;;;;13.15;6.50;;;;;;;;;;5031869;28;20728;-64
2023/05/23 04:50:33;;;;;;;13.70;6.50;;;;;;;;;;5032138;28;20222;-64
2023/05/23 04:52:58;;;;;;;12.30;6.72;;;;;;;;;;5010830;28;20227;-64
2023/05/23 04:55:23;;;;;;;14.57;7.00;;;;;;;;;;5007348;28;20224;-64
2023/05/23 04:57:48;;;;;;;14.40;7.43;;;;;;;;;;5014019;28;20212;-64
2023/05/23 05:00:14;;;;;;;16.42;6.63;;;;;;;;;;5011253;28;20215;-64
2023/05/23 05:02:39;;;;;;;16.98;7.47;;;;;;;;;;5021747;28;20243;-64
2023/05/23 05:05:05;;;;;;;17.20;7.05;;;;;;;;;;4996198;28;20224;-63
2023/05/23 05:07:30;;;;;;;14.95;6.88;;;;;;;;;;4994581;28;20751;-64
2023/05/23 05:09:56;;;;;;;19.77;7.35;;;;;;;;;;4994818;28;20217;-64
2023/05/23 05:12:21;;;;;;;23.33;8.52;;;;;;;;;;5000572;28;20228;-64
2023/05/23 05:14:46;;;;;;;20.08;7.85;;;;;;;;;;5001975;28;20247;-64
2023/05/23 05:17:11;;;;;;;18.15;7.90;;;;;;;;;;5002033;28;20294;-64
2023/05/23 05:19:37;;;;;;;20.10;7.82;;;;;;;;;;5002656;28;20239;-64
2023/05/23 05:22:02;;;;;;;15.65;7.03;;;;;;;;;;5005143;28;20628;-64
2023/05/23 05:24:28;;;;;;;19.23;7.97;;;;;;;;;;5002538;28;20216;-65
2023/05/23 05:26:53;;;;;;;14.57;8.15;;;;;;;;;;5017375;28;20550;-64
2023/05/23 05:29:19;;;;;;;16.13;7.88;;;;;;;;;;5012751;28;20216;-64
2023/05/23 05:31:44;;;;;;;18.75;7.22;;;;;;;;;;5013650;28;20223;-64
2023/05/23 05:34:10;;;;;;;17.63;8.27;;;;;;;;;;5023449;28;20258;-64
2023/05/23 05:36:35;;;;;;;20.70;8.13;;;;;;;;;;5030526;28;20641;-65
2023/05/23 05:39:00;;;;;;;19.65;8.13;;;;;;;;;;5031209;28;20695;-64
2023/05/23 05:41:26;;;;;;;18.87;8.80;;;;;;;;;;5031451;28;20422;-64
2023/05/23 05:43:51;;;;;;;20.98;8.93;;;;;;;;;;5030714;28;20695;-66
2023/05/23 05:46:16;;;;;;;17.83;8.50;;;;;;;;;;5033720;28;20437;-64
2023/05/23 05:48:42;;;;;;;19.30;8.60;;;;;;;;;;5042105;28;20459;-63
2023/05/23 05:51:07;;;;;;;18.83;8.70;;;;;;;;;;5037448;28;20430;-64
2023/05/23 05:53:32;;;;;;;17.08;8.30;;;;;;;;;;5041451;28;20250;-64
2023/05/23 05:55:57;;;;;;;20.52;7.32;;;;;;;;;;5040418;28;20805;-64
2023/05/23 05:58:23;;;;;;;22.27;8.20;;;;;;;;;;5031290;28;20218;-64
2023/05/23 06:00:48;;;;;;;23.90;7.95;;;;;;;;;;5041329;28;20661;-64
2023/05/23 06:03:14;;;;;;;18.83;7.80;;;;;;;;;;5039439;28;20196;-65
2023/05/23 06:05:40;;;;;;;22.08;7.82;;;;;;;;;;5039347;28;20208;-65
2023/05/23 06:08:05;;;;;;;18.88;7.35;;;;;;;;;;5039697;28;20214;-64
2023/05/23 06:10:30;;;;;;;21.15;9.13;;;;;;;;;;5041215;28;20293;-64
2023/05/23 06:12:56;;;;;;;20.15;8.07;;;;;;;;;;5039880;28;20224;-65
2023/05/23 06:15:22;;;;;;;25.35;10.38;;;;;;;;;;5038806;28;20546;-64
2023/05/23 06:17:47;;;;;;;25.52;9.02;;;;;;;;;;5038718;28;20209;-64
2023/05/23 06:20:12;;;;;;;17.00;7.13;;;;;;;;;;5036137;28;20242;-64
2023/05/23 06:22:38;;;;;;;16.42;7.70;;;;;;;;;;5033837;28;20545;-64
2023/05/23 06:25:04;;;;;;;19.08;7.93;;;;;;;;;;5028996;28;20232;-63
2023/05/23 06:27:29;;;;;;;18.52;7.30;;;;;;;;;;5030738;28;20216;-64
2023/05/23 06:29:54;;;;;;;19.52;7.35;;;;;;;;;;5011191;28;20614;-65
2023/05/23 06:32:19;;;;;;;16.92;7.03;;;;;;;;;;5009927;28;20237;-65
2023/05/23 06:34:45;;;;;;;15.25;7.20;;;;;;;;;;5028552;28;20213;-65
2023/05/23 06:37:10;;;;;;;14.88;6.60;;;;;;;;;;5035805;28;20666;-64
2023/05/23 06:39:35;;;;;;;15.80;6.30;;;;;;;;;;5028579;28;20250;-65
2023/05/23 06:42:01;;;;;;;14.18;5.95;;;;;;;;;;5030307;28;20207;-63
2023/05/23 06:44:26;;;;;;;14.15;5.50;;;;;;;;;;5040409;28;20215;-64
2023/05/23 06:46:56;;;;;;;13.95;5.88;;;;;;;;;;5035909;28;20291;-64
2023/05/23 06:49:21;;;;;;;12.02;5.75;;;;;;;;;;5033791;28;20211;-64
2023/05/23 06:51:47;;;;;;;14.43;5.78;;;;;;;;;;5034592;28;20533;-64
2023/05/23 06:54:12;;;;;;;21.77;9.57;;;;;;;;;;5033543;28;20207;-65
2023/05/23 06:56:37;;;;;;;13.45;5.30;;;;;;;;;;5042324;28;20219;-65
2023/05/23 06:59:02;;;;;;;12.25;4.88;;;;;;;;;;5041861;28;20579;-65
2023/05/23 07:01:28;;;;;;;9.73;4.63;;;;;;;;;;5028969;28;20224;-65
2023/05/23 07:03:53;;;;;;;12.55;4.70;;;;;;;;;;5042866;28;20208;-66
2023/05/23 07:06:18;;;;;;;12.32;4.82;;;;;;;;;;5035412;28;20741;-66
2023/05/23 07:08:45;;;;;;;11.15;4.30;;;;;;;;;;5027687;28;20212;-65
2023/05/23 07:11:10;;;;;;;11.70;4.72;;;;;;;;;;5014253;28;20208;-66
2023/05/23 07:13:36;;;;;;;13.18;4.82;;;;;;;;;;5014090;28;20255;-66
2023/05/23 07:16:01;;;;;;;9.70;4.13;;;;;;;;;;5037422;28;20216;-64
2023/05/23 07:18:26;;;;;;;12.73;4.70;;;;;;;;;;5042472;28;20582;-66
2023/05/23 07:20:51;;;;;;;10.50;4.40;;;;;;;;;;5033224;28;20214;-66
2023/05/23 07:23:17;;;;;;;13.05;4.43;;;;;;;;;;5038212;28;20207;-66
2023/05/23 07:25:43;;;;;;;13.43;4.97;;;;;;;;;;5043935;28;20231;-65
2023/05/23 07:28:08;;;;;;;14.52;5.00;;;;;;;;;;5041475;28;20219;-65
2023/05/23 07:30:33;;;;;;;11.85;4.22;;;;;;;;;;5038918;28;20210;-66
2023/05/23 07:32:59;;;;;;;10.60;4.40;;;;;;;;;;5037276;28;20223;-66
2023/05/23 07:35:25;;;;;;;10.75;4.82;;;;;;;;;;5032634;28;20298;-66
2023/05/23 07:37:52;;;;;;;13.65;4.80;;;;;;;;;;5033534;28;20200;-68
2023/05/23 07:40:17;;;;;;;11.68;4.57;;;;;;;;;;5033486;28;20216;-63
2023/05/23 07:42:42;;;;;;;12.77;5.07;;;;;;;;;;5038393;28;20214;-62
2023/05/23 07:45:08;;;;;;;15.35;5.32;;;;;;;;;;5035631;28;20230;-62
2023/05/23 07:47:33;;;;;;;12.65;4.63;;;;;;;;;;5033304;28;20220;-63
2023/05/23 07:50:01;;;;;;;13.60;5.22;;;;;;;;;;5032831;28;20563;-63
2023/05/23 07:52:26;;;;;;;13.30;5.10;;;;;;;;;;5032675;28;20223;-63
2023/05/23 07:54:51;;;;;;;11.38;4.70;;;;;;;;;;5033849;28;20215;-63
2023/05/23 07:57:16;;;;;;;15.82;5.25;;;;;;;;;;5032533;28;20219;-63
2023/05/23 07:59:42;;;;;;;14.52;4.82;;;;;;;;;;5033220;28;20211;-63
2023/05/23 08:02:07;;;;;;;12.68;5.40;;;;;;;;;;5032301;28;20216;-63
2023/05/23 08:04:32;;;;;;;11.00;4.65;;;;;;;;;;5032825;28;20629;-63
2023/05/23 08:06:59;;;;;;;11.10;4.70;;;;;;;;;;5016296;28;20225;-63
2023/05/23 08:09:24;;;;;;;16.33;5.00;;;;;;;;;;5042338;28;20218;-64
2023/05/23 08:11:49;;;;;;;14.18;5.68;;;;;;;;;;5036994;28;20215;-62
2023/05/23 08:14:15;;;;;;;14.05;4.85;;;;;;;;;;5024393;28;20298;-62
2023/05/23 08:16:40;;;;;;;13.13;5.20;;;;;;;;;;5028771;28;20307;-62
2023/05/23 08:19:05;;;;;;;14.45;5.05;;;;;;;;;;5031710;28;21125;-62
2023/05/23 08:21:31;;;;;;;16.73;5.28;;;;;;;;;;5032820;28;20231;-62
2023/05/23 08:23:56;;;;;;;14.00;5.00;;;;;;;;;;5030101;28;20314;-62
2023/05/23 08:26:21;;;;;;;8.18;3.45;;;;;;;;;;5029805;28;20215;-62
2023/05/23 08:28:47;;;;;;;10.95;3.33;;;;;;;;;;5032947;28;20754;-62
2023/05/23 08:31:12;;;;;;;9.80;3.03;;;;;;;;;;5031962;28;20229;-61
2023/05/23 08:33:37;;;;;;;13.70;3.47;;;;;;;;;;5032079;28;20219;-62
2023/05/23 08:36:03;;;;;;;12.15;3.55;;;;;;;;;;5031647;28;20208;-62
2023/05/23 08:38:28;;;;;;;9.73;3.38;;;;;;;;;;5030565;28;20293;-63
2023/05/23 08:40:53;;;;;;;11.85;3.10;;;;;;;;;;5032635;28;20350;-62
2023/05/23 08:43:18;;;;;;;11.32;2.85;;;;;;;;;;5028208;28;20679;-61
2023/05/23 08:45:45;;;;;;;13.45;3.35;;;;;;;;;;5026939;28;20715;-62
2023/05/23 08:48:12;;;;;;;12.15;3.45;;;;;;;;;;5027800;28;20200;-62
2023/05/23 08:50:37;;;;;;;12.10;3.20;;;;;;;;;;5031840;28;20226;-62
2023/05/23 08:53:03;;;;;;;12.32;3.38;;;;;;;;;;5029543;28;20220;-61
2023/05/23 08:55:28;;;;;;;15.25;3.70;;;;;;;;;;5032140;28;20546;-62
2023/05/23 08:57:54;;;;;;;15.10;3.30;;;;;;;;;;5032454;28;20230;-62
2023/05/23 09:00:21;;;;;;;12.25;3.30;;;;;;;;;;5030056;28;20671;-62
2023/05/23 09:02:46;;;;;;;18.27;3.30;;;;;;;;;;5031644;28;20322;-62
2023/05/23 09:05:12;;;;;;;16.00;4.23;;;;;;;;;;5030889;28;20976;-61
2023/05/23 09:07:38;;;;;;;16.98;3.45;;;;;;;;;;5030651;28;20203;-61
2023/05/23 09:10:06;;;;;;;16.40;3.03;;;;;;;;;;5031607;28;20625;-62
2023/05/23 09:12:32;;;;;;;17.00;3.90;;;;;;;;;;5032247;28;20230;-63
2023/05/23 09:14:57;;;;;;;21.80;3.70;;;;;;;;;;5021793;28;20259;-63
2023/05/23 09:17:22;;;;;;;16.98;3.75;;;;;;;;;;5021515;28;20208;-63
2023/05/23 09:19:48;;;;;;;16.23;4.00;;;;;;;;;;5012069;28;20941;-61
2023/05/23 09:22:13;;;;;;;17.13;3.90;;;;;;;;;;5022533;28;20423;-62
2023/05/23 09:24:40;;;;;;;17.13;4.30;;;;;;;;;;5031886;28;20303;-62
2023/05/23 09:27:06;;;;;;;18.08;3.88;;;;;;;;;;5031038;28;20245;-61
2023/05/23 09:29:31;;;;;;;25.10;4.93;;;;;;;;;;5031764;28;20239;-65
2023/05/23 09:32:09;;;;;;;17.00;3.72;;;;;;;;;;5030267;28;20230;-67
2023/05/23 09:34:34;;;;;;;20.73;3.90;;;;;;;;;;5030717;28;20216;-68
2023/05/23 09:36:59;;;;;;;20.25;4.22;;;;;;;;;;5031106;28;20211;-67
2023/05/23 09:39:25;;;;;;;16.55;3.55;;;;;;;;;;5031260;28;20212;-67
2023/05/23 09:41:50;;;;;;;17.98;3.85;;;;;;;;;;5026512;28;20258;-67
2023/05/23 09:44:16;;;;;;;18.33;4.00;;;;;;;;;;5012012;28;20335;-66
2023/05/23 09:46:41;;;;;;;16.33;3.35;;;;;;;;;;5030018;28;20215;-67
2023/05/23 09:49:15;;;;;;;14.75;3.58;;;;;;;;;;5029728;28;20992;-66
2023/05/23 09:51:40;;;;;;;15.93;3.72;;;;;;;;;;5030740;28;20215;-68
2023/05/23 09:54:05;;;;;;;17.63;4.85;;;;;;;;;;5030979;28;20223;-67
2023/05/23 09:56:31;;;;;;;16.00;3.63;;;;;;;;;;5016900;28;20652;-68
2023/05/23 09:58:56;;;;;;;15.30;3.67;;;;;;;;;;5010255;28;20255;-68
2023/05/23 10:01:21;;;;;;;15.90;3.60;;;;;;;;;;5009653;28;20220;-68
2023/05/23 10:03:48;;;;;;;12.50;3.55;;;;;;;;;;5010609;28;20597;-68
2023/05/23 10:06:16;;;;;;;13.95;3.65;;;;;;;;;;5010466;28;20342;-67
2023/05/23 10:08:43;;;;;;;13.18;3.67;;;;;;;;;;5010320;28;20237;-67
2023/05/23 10:11:15;;;;;;;15.25;3.53;;;;;;;;;;5009241;28;20262;-67
2023/05/23 10:13:42;;;;;;;13.70;3.50;;;;;;;;;;5011378;28;20279;-68
2023/05/23 10:16:22;;;;;;;16.73;3.83;;;;;;;;;;5029680;28;20207;-66
2023/05/23 10:18:48;;;;;;;20.63;3.67;;;;;;;;;;5029083;28;20306;-67
2023/05/23 10:21:19;;;;;;;20.63;3.85;;;;;;;;;;5034135;28;20434;-67
2023/05/23 10:23:45;;;;;;;10.70;3.30;;;;;;;;;;5033339;28;20215;-67
2023/05/23 10:26:11;;;;;;;14.35;3.67;;;;;;;;;;5034546;28;20583;-67
2023/05/23 10:28:36;;;;;;;12.70;3.22;;;;;;;;;;5033892;28;20222;-68
2023/05/23 10:31:01;;;;;;;15.95;3.83;;;;;;;;;;5042981;28;20568;-66
2023/05/23 10:33:26;;;;;;;15.18;3.40;;;;;;;;;;5054285;28;20230;-67
2023/05/23 10:35:55;;;;;;;14.80;3.50;;;;;;;;;;5053435;28;20241;-68
2023/05/23 10:38:34;;;;;;;14.23;3.58;;;;;;;;;;5052535;28;20666;-68
2023/05/23 10:41:02;;;;;;;17.35;3.88;;;;;;;;;;5054162;28;20261;-68
2023/05/23 10:43:30;;;;;;;17.65;3.60;;;;;;;;;;5053720;28;20219;-69
2023/05/23 10:45:55;;;;;;;19.30;3.90;;;;;;;;;;5038266;28;20218;-68
2023/05/23 10:48:21;;;;;;;18.50;3.75;;;;;;;;;;5033852;28;20219;-68
2023/05/23 10:51:00;;;;;;;12.30;3.22;;;;;;;;;;5034575;28;20242;-68
2023/05/23 10:53:25;;;;;;;12.40;3.65;;;;;;;;;;5033473;28;20679;-68
2023/05/23 10:55:50;;;;;;;15.05;3.38;;;;;;;;;;5024128;28;20215;-68
2023/05/23 10:58:19;;;;;;;12.57;3.22;;;;;;;;;;5014113;28;20230;-69
2023/05/23 11:00:49;;;;;;;13.45;3.15;;;;;;;;;;5014007;28;20212;-67
2023/05/23 11:03:15;;;;;;;11.57;3.17;;;;;;;;;;5014174;28;20212;-68
2023/05/23 11:05:42;;;;;;;13.73;3.47;;;;;;;;;;5012697;28;20292;-69
2023/05/23 11:08:09;;;;;;;13.48;3.45;;;;;;;;;;5012568;28;20682;-67
2023/05/23 11:10:54;;;;;;;13.63;3.58;;;;;;;;;;5014471;28;20229;-69
2023/05/23 11:13:20;;;;;;;12.77;3.30;;;;;;;;;;5013401;28;20278;-68
2023/05/23 11:15:47;;;;;;;14.38;3.60;;;;;;;;;;5027848;28;20211;-68
2023/05/23 11:18:27;;;;;;;13.18;3.33;;;;;;;;;;5013682;28;20208;-66
2023/05/23 11:20:53;;;;;;;14.48;3.30;;;;;;;;;;5013499;28;20258;-70
2023/05/23 11:23:18;;;;;;;16.35;3.50;;;;;;;;;;5038672;28;20269;-69
2023/05/23 11:25:47;;;;;;;10.38;2.80;;;;;;;;;;5033861;28;20298;-69
2023/05/23 11:28:12;;;;;;;10.63;2.88;;;;;;;;;;5031571;28;20212;-69
2023/05/23 11:30:38;;;;;;;11.50;3.28;;;;;;;;;;5033163;28;20235;-69
2023/05/23 11:33:12;;;;;;;15.68;3.35;;;;;;;;;;5032521;28;20227;-68
2023/05/23 11:35:43;;;;;;;17.27;3.70;;;;;;;;;;5032742;28;20291;-70
2023/05/23 11:38:08;;;;;;;10.23;3.10;;;;;;;;;;5033410;28;20290;-68
2023/05/23 11:40:34;;;;;;;14.32;3.20;;;;;;;;;;5033794;28;20730;-69
2023/05/23 11:42:59;;;;;;;11.55;3.20;;;;;;;;;;5033043;28;20229;-68
2023/05/23 11:45:25;;;;;;;12.57;3.10;;;;;;;;;;5033365;28;20294;-69
2023/05/23 11:47:51;;;;;;;16.15;3.15;;;;;;;;;;5033194;28;20585;-69
2023/05/23 11:50:16;;;;;;;11.20;3.08;;;;;;;;;;5023274;28;20589;-69
2023/05/23 11:52:41;;;;;;;11.43;3.00;;;;;;;;;;5028637;28;20571;-69
2023/05/23 11:55:07;;;;;;;16.55;3.10;;;;;;;;;;5024365;28;20207;-68
2023/05/23 11:57:33;;;;;;;9.02;2.83;;;;;;;;;;5027623;28;20217;-69
2023/05/23 11:59:58;;;;;;;15.68;3.15;;;;;;;;;;5013925;28;20320;-69
2023/05/23 12:02:24;;;;;;;11.85;3.10;;;;;;;;;;5011734;28;20252;-69
2023/05/23 12:04:49;;;;;;;13.68;2.90;;;;;;;;;;5011858;28;20228;-69
2023/05/23 12:07:17;;;;;;;11.02;3.40;;;;;;;;;;5012604;28;20215;-70
2023/05/23 12:09:43;;;;;;;12.25;3.20;;;;;;;;;;5031286;28;20250;-69
2023/05/23 12:12:08;;;;;;;13.20;3.15;;;;;;;;;;5031011;28;20247;-69
2023/05/23 12:14:34;;;;;;;12.75;2.97;;;;;;;;;;5024381;28;20207;-69
2023/05/23 12:16:59;;;;;;;15.40;2.70;;;;;;;;;;5032608;28;20903;-68
2023/05/23 12:19:24;;;;;;;13.27;3.22;;;;;;;;;;5032333;28;20270;-69
2023/05/23 12:21:50;;;;;;;11.70;2.70;;;;;;;;;;5032448;28;20237;-69
2023/05/23 12:24:17;;;;;;;12.02;2.90;;;;;;;;;;5031831;28;20215;-69
2023/05/23 12:26:46;;;;;;;10.27;3.15;;;;;;;;;;5031387;28;20733;-69
2023/05/23 12:29:11;;;;;;;13.98;3.33;;;;;;;;;;5032917;28;20211;-69
2023/05/23 12:31:37;;;;;;;9.88;2.97;;;;;;;;;;5032450;28;20219;-69
2023/05/23 12:34:02;;;;;;;11.45;2.85;;;;;;;;;;5041706;28;20631;-67
2023/05/23 12:36:30;;;;;;;13.55;2.92;;;;;;;;;;5052020;28;20215;-69
2023/05/23 12:39:00;;;;;;;10.40;2.85;;;;;;;;;;5051643;28;20219;-69
2023/05/23 12:41:26;;;;;;;10.95;2.63;;;;;;;;;;5048055;28;20212;-69
2023/05/23 12:43:51;;;;;;;13.70;2.80;;;;;;;;;;5040586;28;20210;-68
2023/05/23 12:46:17;;;;;;;11.82;2.92;;;;;;;;;;5040416;28;20211;-69
2023/05/23 12:48:42;;;;;;;13.35;2.80;;;;;;;;;;5043180;28;20284;-64
2023/05/23 12:51:07;;;;;;;11.52;2.70;;;;;;;;;;5028696;28;20216;-63
2023/05/23 12:53:33;;;;;;;10.57;2.50;;;;;;;;;;5030511;28;20278;-64
2023/05/23 12:55:58;;;;;;;14.25;3.30;;;;;;;;;;5031918;28;20230;-64
2023/05/23 12:58:23;;;;;;;13.90;2.75;;;;;;;;;;5031451;28;20646;-64
2023/05/23 13:00:49;;;;;;;10.45;2.67;;;;;;;;;;5032260;28;20558;-64
2023/05/23 13:03:14;;;;;;;11.63;2.47;;;;;;;;;;5030733;28;20238;-63
2023/05/23 13:05:39;;;;;;;13.43;2.60;;;;;;;;;;5029089;28;20208;-64
2023/05/23 13:08:05;;;;;;;12.80;2.60;;;;;;;;;;5011546;28;20207;-63
2023/05/23 13:10:30;;;;;;;12.23;2.45;;;;;;;;;;5010041;28;20257;-64
2023/05/23 13:12:56;;;;;;;11.63;2.65;;;;;;;;;;5016169;28;20215;-64
2023/05/23 13:15:21;;;;;;;14.35;2.60;;;;;;;;;;5031103;28;20234;-65
2023/05/23 13:17:47;;;;;;;14.23;2.93;;;;;;;;;;5031845;28;20482;-61
2023/05/23 13:20:13;;;;;;;12.07;2.85;;;;;;;;;;5030726;28;20228;-63
2023/05/23 13:22:38;;;;;;;16.05;2.95;;;;;;;;;;5031126;28;20242;-63
2023/05/23 13:25:04;;;;;;;13.38;3.05;;;;;;;;;;5031132;28;20232;-63
2023/05/23 13:27:29;;;;;;;11.27;2.90;;;;;;;;;;5031442;28;20212;-62
2023/05/23 13:29:54;;;;;;;11.63;2.67;;;;;;;;;;5031681;28;20211;-62
2023/05/23 13:32:20;;;;;;;8.55;2.70;;;;;;;;;;5031455;28;20230;-62
2023/05/23 13:34:45;;;;;;;11.75;2.50;;;;;;;;;;5030951;28;20220;-62
2023/05/23 13:37:10;;;;;;;10.63;2.70;;;;;;;;;;5030756;28;20620;-62
2023/05/23 13:39:35;;;;;;;13.05;3.08;;;;;;;;;;5031344;28;20222;-62
2023/05/23 13:42:01;;;;;;;15.48;2.72;;;;;;;;;;5030209;28;20580;-62
2023/05/23 13:44:27;;;;;;;14.60;3.30;;;;;;;;;;5029416;28;20295;-62
2023/05/23 13:46:52;;;;;;;14.93;3.20;;;;;;;;;;5011934;28;20212;-62
2023/05/23 13:49:17;;;;;;;13.23;2.88;;;;;;;;;;5010708;28;20567;-61
2023/05/23 13:51:43;;;;;;;13.82;2.85;;;;;;;;;;5011294;28;20235;-62
2023/05/23 13:54:08;;;;;;;9.00;2.40;;;;;;;;;;5010500;28;20255;-63
2023/05/23 13:56:33;;;;;;;13.68;3.20;;;;;;;;;;5016356;28;20274;-63
2023/05/23 13:58:58;;;;;;;10.48;2.63;;;;;;;;;;4998964;28;20877;-62
2023/05/23 14:01:24;;;;;;;15.80;3.15;;;;;;;;;;4998684;28;20224;-65
2023/05/23 14:03:49;;;;;;;13.10;3.28;;;;;;;;;;5018250;28;20207;-62
2023/05/23 14:06:14;;;;;;;11.25;2.85;;;;;;;;;;5017146;28;21082;-62
2023/05/23 14:08:40;;;;;;;13.38;3.03;;;;;;;;;;5005803;28;20519;-63
2023/05/23 14:11:05;;;;;;;11.30;2.72;;;;;;;;;;5005984;28;20223;-62
2023/05/23 14:13:31;;;;;;;15.00;3.13;;;;;;;;;;5006593;28;20228;-64
2023/05/23 14:15:56;;;;;;;14.15;2.70;;;;;;;;;;5006778;28;20589;-62
2023/05/23 14:18:22;;;;;;;15.60;3.17;;;;;;;;;;5005676;28;20215;-63
2023/05/23 14:20:47;;;;;;;10.82;2.58;;;;;;;;;;5020057;28;20258;-62
2023/05/23 14:23:12;;;;;;;9.70;2.83;;;;;;;;;;5016672;28;20226;-63
2023/05/23 14:25:38;;;;;;;12.93;2.95;;;;;;;;;;5017754;28;20216;-62